»·PEaware :: AAL457 KLAX-KSFO

AAL457 :: KLAX-KSFO

FLIGHT INFORMATION

Flight Status: Arrived
Operator:
American Airlines
More flights by this operator :: More flights under this callsign
Pilot: Alan S. (10569)
Aircraft: BOEING 757-200
(B752)
More flights by this aircraft type
Origin: KLAX Los Angeles Intl
United States
Destination: KSFO San Francisco Intl
United States
More flights between these airports :: More routes between these airports
Route: VTU7 RZS STOKD SERFR WWAVS1
File this flight plan on PilotEdge
Remarks: American twitch.tv / aerosimgaming
Altitude:
(Current/Filed)
32,000ft
Speed:
(Current/Filed)
460kts
Departed: 08-Jan-17 04:49 PM
Arrived: 08-Jan-17 06:08 PM
Distance/Time
Traveled:
293nm/1:19
Distance/Time
To Go:
Arrived

Flight Plot

Page will automatically refresh every two minutes.

Flight plan parsing failed; only flown route is shown


Map Options




Map Legend


Flown Route
Filed Route
Departure Airport
Arrival Airport
Navaid (VOR, NDB)
Fix

Horizontal Profiles

Position Reports

Time Latitude Longitude Heading Altitude Ground
Speed
08-Jan-17 15:58 33.939479 -118.407144 37 115ft 0kts
08-Jan-17 15:59 33.939479 -118.407144 37 115ft 0kts
08-Jan-17 16:00 33.939479 -118.407144 37 115ft 0kts
08-Jan-17 16:01 33.939479 -118.407144 37 114ft 0kts
08-Jan-17 16:02 33.939479 -118.407144 37 114ft 0kts
08-Jan-17 16:03 33.939479 -118.407144 37 114ft 0kts
08-Jan-17 16:04 33.939479 -118.407144 37 114ft 0kts
08-Jan-17 16:05 33.939479 -118.407144 37 114ft 0kts
08-Jan-17 16:06 33.939479 -118.407144 37 114ft 0kts
08-Jan-17 16:07 33.939479 -118.407144 37 114ft 0kts
08-Jan-17 16:08 33.939479 -118.407144 37 114ft 0kts
08-Jan-17 16:09 33.939479 -118.407144 37 114ft 0kts
08-Jan-17 16:10 33.939479 -118.407144 37 114ft 0kts
08-Jan-17 16:11 33.939479 -118.407144 37 114ft 0kts
08-Jan-17 16:12 33.939479 -118.407144 37 114ft 0kts
08-Jan-17 16:13 33.939479 -118.407144 37 114ft 0kts
08-Jan-17 16:14 33.939479 -118.407144 37 114ft 0kts
08-Jan-17 16:15 33.939479 -118.407144 37 114ft 0kts
08-Jan-17 16:16 33.939479 -118.407144 37 114ft 0kts
08-Jan-17 16:17 33.939479 -118.407144 37 114ft 0kts
08-Jan-17 16:18 33.939479 -118.407144 37 114ft 0kts
08-Jan-17 16:19 33.939479 -118.407144 37 114ft 0kts
08-Jan-17 16:20 33.939479 -118.407144 37 114ft 0kts
08-Jan-17 16:21 33.939479 -118.407144 37 114ft 0kts
08-Jan-17 16:22 33.939479 -118.407144 37 114ft 0kts
08-Jan-17 16:23 33.939479 -118.407144 37 114ft 0kts
08-Jan-17 16:24 33.939479 -118.407144 37 114ft 0kts
08-Jan-17 16:25 33.939479 -118.407144 37 114ft 0kts
08-Jan-17 16:26 33.939479 -118.407144 37 114ft 0kts
08-Jan-17 16:27 33.939479 -118.407144 37 114ft 0kts
08-Jan-17 16:28 33.939479 -118.407144 37 114ft 0kts
08-Jan-17 16:29 33.939479 -118.407144 37 114ft 0kts
08-Jan-17 16:30 33.939479 -118.407144 37 114ft 0kts
08-Jan-17 16:31 33.939479 -118.407144 37 114ft 0kts
08-Jan-17 16:32 33.939479 -118.407144 37 114ft 0kts
08-Jan-17 16:33 33.939479 -118.407144 37 114ft 0kts
08-Jan-17 16:34 33.939479 -118.407144 37 114ft 0kts
08-Jan-17 16:35 33.939479 -118.407144 37 114ft 0kts
08-Jan-17 16:36 33.939182 -118.407491 74 114ft 1kts
08-Jan-17 16:37 33.939447 -118.407830 164 114ft 2kts
08-Jan-17 16:38 33.939689 -118.407911 164 114ft 0kts
08-Jan-17 16:39 33.939681 -118.407909 164 114ft 0kts
08-Jan-17 16:40 33.939557 -118.407877 171 114ft 4kts
08-Jan-17 16:41 33.939130 -118.404641 83 115ft 17kts
08-Jan-17 16:42 33.939920 -118.396915 82 114ft 28kts
08-Jan-17 16:43 33.940926 -118.386353 83 114ft 35kts
08-Jan-17 16:44 33.940607 -118.382256 80 114ft 11kts
08-Jan-17 16:45 33.940732 -118.380846 99 114ft 0kts
08-Jan-17 16:46 33.940726 -118.380805 99 114ft 0kts
08-Jan-17 16:47 33.940726 -118.380805 99 114ft 0kts
08-Jan-17 16:48 33.939714 -118.381274 264 114ft 18kts
08-Jan-17 16:49 33.936278 -118.413689 262 315ft 163kts
08-Jan-17 16:50 33.928930 -118.466581 262 2064ft 158kts
08-Jan-17 16:51 33.922191 -118.525453 259 3648ft 197kts
08-Jan-17 16:52 33.917919 -118.599117 264 5117ft 239kts
08-Jan-17 16:53 33.945521 -118.670894 293 6953ft 260kts
08-Jan-17 16:54 33.978654 -118.746063 288 10067ft 261kts
08-Jan-17 16:55 34.014999 -118.827837 288 12276ft 297kts
08-Jan-17 16:56 34.056288 -118.920472 288 14387ft 333kts
08-Jan-17 16:57 34.101032 -119.021034 288 14974ft 350kts
08-Jan-17 16:58 34.143165 -119.102900 293 14961ft 357kts
08-Jan-17 16:59 34.196788 -119.200396 293 15507ft 362kts
08-Jan-17 17:00 34.249867 -119.297043 292 17908ft 369kts
08-Jan-17 17:01 34.305519 -119.398676 291 19966ft 380kts
08-Jan-17 17:02 34.363921 -119.505605 291 21862ft 388kts
08-Jan-17 17:03 34.420512 -119.609552 291 23420ft 397kts
08-Jan-17 17:04 34.471921 -119.704230 290 24813ft 404kts
08-Jan-17 17:05 34.533961 -119.798838 305 26136ft 439kts
08-Jan-17 17:06 34.609878 -119.880533 305 27350ft 446kts
08-Jan-17 17:07 34.684824 -119.960458 305 28409ft 453kts
08-Jan-17 17:08 34.762040 -120.042780 305 29378ft 460kts
08-Jan-17 17:09 34.841323 -120.127399 304 30741ft 455kts
08-Jan-17 17:10 34.921348 -120.213100 304 31977ft 451kts
08-Jan-17 17:11 35.000420 -120.297994 304 32076ft 447kts
08-Jan-17 17:12 35.078285 -120.381915 304 32078ft 450kts
08-Jan-17 17:13 35.143034 -120.451805 304 32059ft 451kts
08-Jan-17 17:14 35.213692 -120.528247 304 32059ft 451kts
08-Jan-17 17:15 35.287907 -120.608739 304 32059ft 451kts
08-Jan-17 17:16 35.358085 -120.685972 303 32079ft 449kts
08-Jan-17 17:17 35.428064 -120.762917 303 32068ft 450kts
08-Jan-17 17:18 35.500270 -120.839220 308 32054ft 462kts
08-Jan-17 17:19 35.577066 -120.908024 309 32051ft 463kts
08-Jan-17 17:20 35.654537 -120.978963 308 32052ft 462kts
08-Jan-17 17:21 35.732613 -121.051477 308 32044ft 464kts
08-Jan-17 17:22 35.810137 -121.123861 308 32055ft 462kts
08-Jan-17 17:23 35.883921 -121.194077 308 32052ft 463kts
08-Jan-17 17:24 35.966285 -121.271802 308 32053ft 464kts
08-Jan-17 17:25 36.043256 -121.344335 308 32025ft 463kts
08-Jan-17 17:26 36.117379 -121.406202 313 31964ft 477kts
08-Jan-17 17:27 36.186181 -121.458962 314 31953ft 477kts
08-Jan-17 17:28 36.291824 -121.540813 313 31845ft 468kts
08-Jan-17 17:29 36.364955 -121.599210 313 30591ft 466kts
08-Jan-17 17:30 36.451986 -121.669079 313 29068ft 456kts
08-Jan-17 17:31 36.553588 -121.748458 313 27339ft 440kts
08-Jan-17 17:32 36.649998 -121.828878 311 24535ft 412kts
08-Jan-17 17:33 36.744023 -121.903807 313 21132ft 396kts
08-Jan-17 17:34 36.817679 -121.983607 303 18690ft 352kts
08-Jan-17 17:35 36.888794 -122.059270 303 17235ft 321kts
08-Jan-17 17:36 36.955877 -122.130228 304 15634ft 313kts
08-Jan-17 17:37 37.021231 -122.199326 305 14146ft 305kts
08-Jan-17 17:38 37.084890 -122.266766 306 12693ft 298kts
08-Jan-17 17:39 37.147976 -122.308047 332 11440ft 322kts
08-Jan-17 17:40 37.228723 -122.336238 333 10098ft 315kts
08-Jan-17 17:41 37.307373 -122.363291 334 8811ft 307kts
08-Jan-17 17:42 37.385068 -122.390057 335 7625ft 303kts
08-Jan-17 17:43 37.452448 -122.413270 335 6930ft 294kts
08-Jan-17 17:44 37.526533 -122.438823 335 6078ft 274kts
08-Jan-17 17:45 37.591392 -122.461205 334 6029ft 252kts
08-Jan-17 17:46 37.653771 -122.482194 343 6043ft 240kts
08-Jan-17 17:47 37.717644 -122.462629 11 5916ft 249kts
08-Jan-17 17:48 37.777059 -122.439409 13 5921ft 248kts
08-Jan-17 17:49 37.835628 -122.414558 13 5900ft 248kts
08-Jan-17 17:50 37.899073 -122.387594 13 5929ft 248kts
08-Jan-17 17:51 37.963973 -122.361080 25 5934ft 251kts
08-Jan-17 17:52 38.012974 -122.304910 43 5943ft 253kts
08-Jan-17 17:53 38.030765 -122.245138 140 5549ft 182kts
08-Jan-17 17:54 38.018499 -122.185794 102 5261ft 217kts
08-Jan-17 17:55 38.016402 -122.117581 102 4708ft 218kts
08-Jan-17 17:56 37.995903 -122.064282 199 3917ft 151kts
08-Jan-17 17:57 37.965216 -122.097397 223 3200ft 139kts
08-Jan-17 17:58 37.935421 -122.134495 223 2969ft 169kts
08-Jan-17 17:59 37.902820 -122.174229 216 2916ft 160kts
08-Jan-17 18:00 37.865507 -122.205283 210 2963ft 163kts
08-Jan-17 18:01 37.827480 -122.233106 207 2959ft 163kts
08-Jan-17 18:02 37.792340 -122.257204 211 2900ft 132kts
08-Jan-17 18:03 37.762959 -122.277038 211 2928ft 126kts
08-Jan-17 18:04 37.732587 -122.297269 205 2275ft 141kts
08-Jan-17 18:05 37.698532 -122.319721 204 1530ft 136kts
08-Jan-17 18:06 37.667244 -122.340355 205 858ft 133kts
08-Jan-17 18:07 37.635950 -122.361344 205 273ft 134kts
08-Jan-17 18:08 37.612923 -122.376689 209 23ft 29kts
08-Jan-17 18:09 37.610554 -122.379968 234 23ft 8kts
08-Jan-17 18:10 37.611512 -122.384220 325 23ft 12kts

Navigation Log

Ident Type
Flight plan parsing failed, navigation log unavailable